createdAt,value
2018-03-27T00:00:23.097Z,0
2018-03-27T00:01:23.030Z,0
2018-03-27T00:02:23.270Z,0
2018-03-27T00:03:23.262Z,0
2018-03-27T00:04:22.979Z,0
2018-03-27T00:05:23.073Z,0
2018-03-27T00:06:22.954Z,0
2018-03-27T00:07:22.673Z,0
2018-03-27T00:08:22.920Z,0
2018-03-27T00:09:23.181Z,0
2018-03-27T00:10:22.889Z,0
2018-03-27T00:11:22.617Z,0
2018-03-27T00:12:22.864Z,0
2018-03-27T00:13:22.585Z,0
2018-03-27T00:14:23.079Z,0
2018-03-27T00:15:23.067Z,0
2018-03-27T00:16:22.535Z,0
2018-03-27T00:17:22.777Z,0
2018-03-27T00:18:22.499Z,0
2018-03-27T00:19:23.004Z,0
2018-03-27T00:20:22.983Z,0
2018-03-27T00:21:22.767Z,0
2018-03-27T00:22:22.697Z,0
2018-03-27T00:23:22.942Z,0
2018-03-27T00:24:22.659Z,0
2018-03-27T00:25:22.390Z,0
2018-03-27T00:26:22.638Z,0
2018-03-27T00:27:22.617Z,0
2018-03-27T00:28:22.856Z,0
2018-03-27T00:29:22.327Z,0
2018-03-27T00:30:22.566Z,0
2018-03-27T00:31:22.809Z,0
2018-03-27T00:32:22.800Z,0
2018-03-27T00:33:22.517Z,0
2018-03-27T00:34:22.509Z,0
2018-03-27T00:35:22.499Z,0
2018-03-27T00:36:22.215Z,0
2018-03-27T00:37:22.717Z,0
2018-03-27T00:38:22.444Z,0
2018-03-27T00:39:22.168Z,0
2018-03-27T00:40:22.409Z,0
2018-03-27T00:41:22.656Z,0
2018-03-27T00:42:22.125Z,0
2018-03-27T00:43:22.111Z,0
2018-03-27T00:44:22.350Z,0
2018-03-27T00:45:22.072Z,0
2018-03-27T00:46:22.063Z,0
2018-03-27T00:47:22.577Z,0
2018-03-27T00:48:22.543Z,0
2018-03-27T00:49:22.012Z,0
2018-03-27T00:50:22.524Z,0
2018-03-27T00:51:22.234Z,0
2018-03-27T00:52:21.960Z,0
2018-03-27T00:53:22.475Z,0
2018-03-27T00:54:22.446Z,0
2018-03-27T00:55:22.172Z,0
2018-03-27T00:56:22.154Z,0
2018-03-27T00:57:22.407Z,0
2018-03-27T00:58:22.392Z,0
2018-03-27T00:59:22.107Z,0
2018-03-27T01:00:22.095Z,0
2018-03-27T01:01:21.817Z,0
2018-03-27T01:02:22.062Z,0
2018-03-27T01:03:22.043Z,0
2018-03-27T01:04:21.767Z,0
2018-03-27T01:05:22.266Z,0
2018-03-27T01:06:22.006Z,0
2018-03-27T01:07:22.235Z,0
2018-03-27T01:08:22.217Z,0
2018-03-27T01:09:21.943Z,0
2018-03-27T01:10:21.935Z,0
2018-03-27T01:11:21.653Z,0
2018-03-27T01:12:21.637Z,0
2018-03-27T01:13:22.137Z,0
2018-03-27T01:14:22.136Z,0
2018-03-27T01:15:21.845Z,0
2018-03-27T01:16:21.578Z,0
2018-03-27T01:17:22.074Z,0
2018-03-27T01:18:21.797Z,0
2018-03-27T01:19:21.785Z,0
2018-03-27T01:20:21.510Z,0
2018-03-27T01:21:22.064Z,0
2018-03-27T01:22:21.480Z,0
2018-03-27T01:23:21.714Z,0
2018-03-27T01:24:21.706Z,0
2018-03-27T01:25:21.691Z,0
2018-03-27T01:26:21.662Z,0
2018-03-27T01:27:21.646Z,0
2018-03-27T01:28:21.632Z,0
2018-03-27T01:29:21.612Z,0
2018-03-27T01:30:21.600Z,0
2018-03-27T01:31:21.846Z,0
2018-03-27T01:32:21.562Z,0
2018-03-27T01:33:21.292Z,0
2018-03-27T01:34:21.280Z,0
2018-03-27T01:35:21.514Z,0
2018-03-27T01:36:21.811Z,0
2018-03-27T01:37:21.743Z,0
2018-03-27T01:38:21.729Z,0
2018-03-27T01:39:21.445Z,0
2018-03-27T01:40:21.433Z,0
2018-03-27T01:41:21.413Z,0
2018-03-27T01:42:21.397Z,0
2018-03-27T01:43:21.384Z,0
2018-03-27T01:44:21.361Z,0
2018-03-27T01:45:21.606Z,0
2018-03-27T01:46:21.075Z,0
2018-03-27T01:47:21.324Z,0
2018-03-27T01:48:21.554Z,0
2018-03-27T01:49:21.318Z,0
2018-03-27T01:50:21.005Z,0
2018-03-27T01:51:21.247Z,0
2018-03-27T01:52:21.232Z,0
2018-03-27T01:53:20.957Z,0
2018-03-27T01:54:21.455Z,0
2018-03-27T01:55:21.437Z,0
2018-03-27T01:56:21.166Z,0
2018-03-27T01:57:21.150Z,0
2018-03-27T01:58:21.389Z,0
2018-03-27T01:59:21.134Z,0
2018-03-27T02:00:21.350Z,0
2018-03-27T02:01:21.336Z,0
2018-03-27T02:02:21.068Z,0
2018-03-27T02:03:20.785Z,0
2018-03-27T02:04:21.292Z,0
2018-03-27T02:05:21.042Z,0
2018-03-27T02:06:21.256Z,0
2018-03-27T02:07:20.981Z,0
2018-03-27T02:08:20.974Z,0
2018-03-27T02:09:20.961Z,0
2018-03-27T02:10:20.927Z,0
2018-03-27T02:11:20.658Z,0
2018-03-27T02:12:20.645Z,0
2018-03-27T02:13:20.876Z,0
2018-03-27T02:14:20.862Z,0
2018-03-27T02:15:21.111Z,0
2018-03-27T02:16:21.094Z,0
2018-03-27T02:17:20.812Z,0
2018-03-27T02:18:21.061Z,0
2018-03-27T02:19:20.794Z,0
2018-03-27T02:20:20.760Z,0
2018-03-27T02:21:20.744Z,0
2018-03-27T02:22:20.723Z,0
2018-03-27T02:23:20.982Z,0
2018-03-27T02:24:20.438Z,0
2018-03-27T02:25:20.935Z,0
2018-03-27T02:26:20.656Z,0
2018-03-27T02:27:20.897Z,0
2018-03-27T02:28:20.386Z,0
2018-03-27T02:29:20.604Z,0
2018-03-27T02:30:20.604Z,0
2018-03-27T02:31:20.595Z,0
2018-03-27T02:32:20.872Z,0
2018-03-27T02:33:20.550Z,0
2018-03-27T02:34:20.798Z,0
2018-03-27T02:35:20.523Z,0
2018-03-27T02:36:20.495Z,0
2018-03-27T02:37:20.486Z,0
2018-03-27T02:38:20.717Z,0
2018-03-27T02:39:20.713Z,0
2018-03-27T02:40:20.167Z,0
2018-03-27T02:41:20.412Z,0
2018-03-27T02:42:20.662Z,0
2018-03-27T02:43:20.656Z,0
2018-03-27T02:44:20.357Z,0
2018-03-27T02:45:20.613Z,0
2018-03-27T02:46:20.343Z,0
2018-03-27T02:47:20.571Z,0
2018-03-27T02:48:20.032Z,0
2018-03-27T02:49:20.538Z,0
2018-03-27T02:50:20.258Z,0
2018-03-27T02:51:20.506Z,0
2018-03-27T02:52:20.486Z,0
2018-03-27T02:53:20.471Z,0
2018-03-27T02:54:20.452Z,0
2018-03-27T02:55:20.433Z,0
2018-03-27T02:56:20.165Z,0
2018-03-27T02:57:20.156Z,0
2018-03-27T02:58:20.468Z,0
2018-03-27T02:59:20.364Z,0
2018-03-27T03:00:20.363Z,0
2018-03-27T03:01:20.076Z,0
2018-03-27T03:02:19.803Z,0
2018-03-27T03:03:20.043Z,0
2018-03-27T03:04:20.026Z,0
2018-03-27T03:05:20.019Z,0
2018-03-27T03:06:19.995Z,0
2018-03-27T03:07:20.239Z,0
2018-03-27T03:08:19.699Z,0
2018-03-27T03:09:19.937Z,0
2018-03-27T03:10:20.180Z,0
2018-03-27T03:11:19.908Z,0
2018-03-27T03:12:19.883Z,0
2018-03-27T03:13:20.141Z,0
2018-03-27T03:14:19.857Z,0
2018-03-27T03:15:20.096Z,0
2018-03-27T03:16:19.560Z,0
2018-03-27T03:17:19.798Z,0
2018-03-27T03:18:19.782Z,0
2018-03-27T03:19:20.031Z,0
2018-03-27T03:20:19.495Z,0
2018-03-27T03:21:19.735Z,0
2018-03-27T03:22:19.979Z,0
2018-03-27T03:23:19.959Z,0
2018-03-27T03:24:19.943Z,0
2018-03-27T03:25:19.919Z,0
2018-03-27T03:26:19.652Z,0
2018-03-27T03:27:19.893Z,0
2018-03-27T03:28:19.689Z,0
2018-03-27T03:29:19.611Z,0
2018-03-27T03:30:19.860Z,0
2018-03-27T03:31:19.834Z,0
2018-03-27T03:32:19.292Z,0
2018-03-27T03:33:19.538Z,0
2018-03-27T03:34:19.515Z,0
2018-03-27T03:35:19.518Z,0
2018-03-27T03:36:19.737Z,0
2018-03-27T03:37:19.724Z,0
2018-03-27T03:38:19.481Z,0
2018-03-27T03:39:19.171Z,0
2018-03-27T03:40:19.670Z,0
2018-03-27T03:41:19.136Z,0
2018-03-27T03:42:19.375Z,0
2018-03-27T03:43:19.106Z,0
2018-03-27T03:44:19.340Z,0
2018-03-27T03:45:19.334Z,0
2018-03-27T03:46:19.569Z,0
2018-03-27T03:47:19.548Z,0
2018-03-27T03:48:19.017Z,0
2018-03-27T03:49:19.511Z,0
2018-03-27T03:50:18.980Z,0
2018-03-27T03:51:19.480Z,0
2018-03-27T03:52:19.205Z,0
2018-03-27T03:53:19.193Z,0
2018-03-27T03:54:19.171Z,0
2018-03-27T03:55:19.152Z,0
2018-03-27T03:56:19.402Z,0
2018-03-27T03:57:19.119Z,0
2018-03-27T03:58:19.362Z,0
2018-03-27T03:59:19.089Z,0
2018-03-27T04:00:19.066Z,0
2018-03-27T04:01:19.055Z,0
2018-03-27T04:02:18.773Z,0
2018-03-27T04:03:18.764Z,0
2018-03-27T04:04:18.996Z,0
2018-03-27T04:05:18.979Z,0
2018-03-27T04:06:18.706Z,0
2018-03-27T04:07:18.943Z,0
2018-03-27T04:08:19.186Z,0
2018-03-27T04:09:19.167Z,0
2018-03-27T04:10:19.154Z,0
2018-03-27T04:11:19.169Z,0
2018-03-27T04:12:18.855Z,0
2018-03-27T04:13:19.099Z,0
2018-03-27T04:14:18.570Z,0
2018-03-27T04:15:19.063Z,0
2018-03-27T04:16:19.049Z,0
2018-03-27T04:17:18.772Z,0
2018-03-27T04:18:19.017Z,0
2018-03-27T04:19:18.998Z,0
2018-03-27T04:20:18.720Z,0
2018-03-27T04:21:18.714Z,0
2018-03-27T04:22:18.942Z,0
2018-03-27T04:23:18.935Z,0
2018-03-27T04:24:18.652Z,0
2018-03-27T04:25:18.899Z,0
2018-03-27T04:26:18.908Z,0
2018-03-27T04:27:18.865Z,0
2018-03-27T04:28:18.842Z,0
2018-03-27T04:29:18.836Z,0
2018-03-27T04:30:18.814Z,0
2018-03-27T04:31:18.287Z,0
2018-03-27T04:32:18.261Z,0
2018-03-27T04:33:18.496Z,0
2018-03-27T04:34:18.742Z,0
2018-03-27T04:35:18.206Z,4
2018-03-27T04:36:17.931Z,0
2018-03-27T04:37:18.430Z,4
2018-03-27T04:38:18.673Z,4
2018-03-27T04:39:18.655Z,4
2018-03-27T04:40:18.436Z,4
2018-03-27T04:41:18.113Z,4
2018-03-27T04:42:18.604Z,8
2018-03-27T04:43:18.080Z,12
2018-03-27T04:44:18.130Z,12
2018-03-27T04:45:18.566Z,16
2018-03-27T04:46:18.276Z,16
2018-03-27T04:47:18.003Z,20
2018-03-27T04:48:17.987Z,24
2018-03-27T04:49:18.234Z,24
2018-03-27T04:50:18.471Z,32
2018-03-27T04:51:18.450Z,32
2018-03-27T04:52:18.177Z,32
2018-03-27T04:53:18.157Z,36
2018-03-27T04:54:18.419Z,44
2018-03-27T04:55:18.131Z,48
2018-03-27T04:56:18.105Z,52
2018-03-27T04:57:17.830Z,52
2018-03-27T04:58:17.814Z,56
2018-03-27T04:59:18.054Z,56
2018-03-27T05:00:18.298Z,60
2018-03-27T05:01:18.026Z,80
2018-03-27T05:02:18.006Z,92
2018-03-27T05:03:17.982Z,96
2018-03-27T05:04:17.976Z,100
2018-03-27T05:05:17.958Z,92
2018-03-27T05:06:17.938Z,100
2018-03-27T05:07:17.664Z,112
2018-03-27T05:08:17.910Z,116
2018-03-27T05:09:17.890Z,120
2018-03-27T05:10:17.865Z,128
2018-03-27T05:11:17.857Z,148
2018-03-27T05:12:17.833Z,172
2018-03-27T05:13:17.816Z,196
2018-03-27T05:14:17.797Z,220
2018-03-27T05:15:17.777Z,256
2018-03-27T05:16:17.762Z,288
2018-03-27T05:17:18.009Z,312
2018-03-27T05:18:17.987Z,352
2018-03-27T05:19:17.458Z,384
2018-03-27T05:20:17.962Z,396
2018-03-27T05:21:17.536Z,400
2018-03-27T05:22:17.661Z,388
2018-03-27T05:23:17.132Z,384
2018-03-27T05:24:17.877Z,412
2018-03-27T05:25:17.884Z,448
2018-03-27T05:26:17.848Z,532
2018-03-27T05:27:17.829Z,632
2018-03-27T05:28:17.305Z,708
2018-03-27T05:29:17.545Z,760
2018-03-27T05:30:17.005Z,776
2018-03-27T05:31:17.504Z,776
2018-03-27T05:32:17.492Z,852
2018-03-27T05:33:17.732Z,968
2018-03-27T05:34:17.213Z,1048
2018-03-27T05:35:17.438Z,1080
2018-03-27T05:36:17.171Z,1024
2018-03-27T05:37:17.662Z,932
2018-03-27T05:38:17.647Z,908
2018-03-27T05:39:17.113Z,980
2018-03-27T05:40:17.353Z,1096
2018-03-27T05:41:17.343Z,1208
2018-03-27T05:42:17.322Z,1328
2018-03-27T05:43:17.043Z,1400
2018-03-27T05:44:17.289Z,1392
2018-03-27T05:45:17.265Z,1280
2018-03-27T05:46:17.566Z,1132
2018-03-27T05:47:16.974Z,1028
2018-03-27T05:48:16.700Z,972
2018-03-27T05:49:17.463Z,960
2018-03-27T05:50:17.186Z,1012
2018-03-27T05:51:17.462Z,1116
2018-03-27T05:52:17.153Z,1320
2018-03-27T05:53:16.874Z,1580
2018-03-27T05:54:17.120Z,1752
2018-03-27T05:55:17.381Z,1884
2018-03-27T05:56:17.086Z,1968
2018-03-27T05:57:17.066Z,1924
2018-03-27T05:58:17.314Z,1844
2018-03-27T05:59:17.032Z,1876
2018-03-27T06:00:16.759Z,1916
2018-03-27T06:01:16.992Z,1960
2018-03-27T06:02:16.990Z,2056
2018-03-27T06:03:16.962Z,2284
2018-03-27T06:04:16.695Z,2464
2018-03-27T06:05:16.681Z,2564
2018-03-27T06:06:16.397Z,2640
2018-03-27T06:07:16.906Z,2616
2018-03-27T06:08:17.146Z,2564
2018-03-27T06:09:16.627Z,2364
2018-03-27T06:10:16.846Z,2268
2018-03-27T06:11:17.226Z,2428
2018-03-27T06:12:16.554Z,2796
2018-03-27T06:13:17.067Z,3168
2018-03-27T06:14:16.778Z,3356
2018-03-27T06:15:16.767Z,3212
2018-03-27T06:16:17.001Z,2924
2018-03-27T06:17:16.731Z,2696
2018-03-27T06:18:16.455Z,2652
2018-03-27T06:19:16.748Z,2820
2018-03-27T06:20:16.425Z,3188
2018-03-27T06:21:16.919Z,3516
2018-03-27T06:22:16.648Z,3796
2018-03-27T06:23:16.886Z,3904
2018-03-27T06:24:16.623Z,3612
2018-03-27T06:25:16.862Z,3228
2018-03-27T06:26:16.839Z,3076
2018-03-27T06:27:16.825Z,3360
2018-03-27T06:28:16.293Z,3884
2018-03-27T06:29:16.858Z,4436
2018-03-27T06:30:16.258Z,4376
2018-03-27T06:31:16.757Z,3832
2018-03-27T06:32:16.488Z,3352
2018-03-27T06:33:16.468Z,3204
2018-03-27T06:34:16.452Z,3108
2018-03-27T06:35:16.693Z,3008
2018-03-27T06:36:16.418Z,2988
2018-03-27T06:37:16.660Z,3152
2018-03-27T06:38:16.385Z,2904
2018-03-27T06:39:16.632Z,2520
2018-03-27T06:40:16.357Z,2188
2018-03-27T06:41:16.349Z,1864
2018-03-27T06:42:16.958Z,1680
2018-03-27T06:43:16.310Z,1796
2018-03-27T06:44:16.551Z,2108
2018-03-27T06:45:16.277Z,2272
2018-03-27T06:46:16.259Z,2268
2018-03-27T06:47:16.248Z,2624
2018-03-27T06:48:15.966Z,3204
2018-03-27T06:49:16.471Z,3804
2018-03-27T06:50:16.198Z,4408
2018-03-27T06:51:15.916Z,4960
2018-03-27T06:52:16.160Z,5412
2018-03-27T06:53:16.149Z,5888
2018-03-27T06:54:16.446Z,6428
2018-03-27T06:55:16.387Z,6532
2018-03-27T06:56:16.364Z,6640
2018-03-27T06:57:15.825Z,6340
2018-03-27T06:58:15.849Z,5540
2018-03-27T06:59:16.165Z,4560
2018-03-27T07:00:15.776Z,4012
2018-03-27T07:01:15.754Z,4076
2018-03-27T07:02:16.019Z,3648
2018-03-27T07:03:16.279Z,3232
2018-03-27T07:04:16.258Z,3260
2018-03-27T07:05:16.315Z,3824
2018-03-27T07:06:16.310Z,4308
2018-03-27T07:07:15.943Z,4868
2018-03-27T07:08:15.911Z,5564
2018-03-27T07:09:15.899Z,6536
2018-03-27T07:10:15.974Z,7528
2018-03-27T07:11:15.337Z,8244
2018-03-27T07:12:15.859Z,8292
2018-03-27T07:13:15.569Z,8152
2018-03-27T07:14:16.117Z,7864
2018-03-27T07:15:15.842Z,7716
2018-03-27T07:16:16.091Z,7804
2018-03-27T07:17:15.768Z,7796
2018-03-27T07:18:16.053Z,7388
2018-03-27T07:19:15.736Z,6560
2018-03-27T07:20:15.484Z,6304
2018-03-27T07:21:15.737Z,6488
2018-03-27T07:22:15.942Z,7084
2018-03-27T07:23:15.663Z,7948
2018-03-27T07:24:15.387Z,8616
2018-03-27T07:25:15.638Z,8204
2018-03-27T07:26:15.359Z,7644
2018-03-27T07:27:15.346Z,7480
2018-03-27T07:28:15.584Z,6928
2018-03-27T07:29:15.052Z,6336
2018-03-27T07:30:15.565Z,6088
2018-03-27T07:31:15.550Z,6112
2018-03-27T07:32:15.524Z,6548
2018-03-27T07:33:15.534Z,7008
2018-03-27T07:34:15.536Z,7396
2018-03-27T07:35:15.739Z,7184
2018-03-27T07:36:15.718Z,7596
2018-03-27T07:37:15.458Z,8616
2018-03-27T07:38:15.694Z,9260
2018-03-27T07:39:15.679Z,9176
2018-03-27T07:40:15.661Z,8724
2018-03-27T07:41:15.390Z,8432
2018-03-27T07:42:15.629Z,8900
2018-03-27T07:43:15.362Z,9940
2018-03-27T07:44:15.611Z,11096
2018-03-27T07:45:15.328Z,11336
2018-03-27T07:46:15.056Z,11036
2018-03-27T07:47:15.551Z,9728
2018-03-27T07:48:15.284Z,7980
2018-03-27T07:49:15.006Z,6508
2018-03-27T07:50:14.991Z,5300
2018-03-27T07:51:14.974Z,4820
2018-03-27T07:52:15.220Z,4692
2018-03-27T07:53:15.460Z,4836
2018-03-27T07:54:15.453Z,5084
2018-03-27T07:55:14.921Z,5364
2018-03-27T07:56:15.160Z,5712
2018-03-27T07:57:14.890Z,5688
2018-03-27T07:58:15.203Z,5724
2018-03-27T07:59:15.118Z,5912
2018-03-27T08:00:14.844Z,6044
2018-03-27T08:01:15.342Z,6316
2018-03-27T08:02:15.071Z,6560
2018-03-27T08:03:15.317Z,6692
2018-03-27T08:04:15.300Z,6520
2018-03-27T08:05:15.028Z,5980
2018-03-27T08:06:14.754Z,6432
2018-03-27T08:07:14.995Z,7516
2018-03-27T08:08:14.982Z,8992
2018-03-27T08:09:14.973Z,9340
2018-03-27T08:10:14.950Z,8496
2018-03-27T08:11:15.525Z,7356
2018-03-27T08:12:14.921Z,6908
2018-03-27T08:13:14.911Z,6844
2018-03-27T08:14:14.897Z,6720
2018-03-27T08:15:14.881Z,6696
2018-03-27T08:16:15.124Z,6800
2018-03-27T08:17:15.113Z,6904
2018-03-27T08:18:15.096Z,7184
2018-03-27T08:19:14.560Z,7320
2018-03-27T08:20:14.293Z,7340
2018-03-27T08:21:14.798Z,7276
2018-03-27T08:22:15.073Z,7444
2018-03-27T08:23:14.505Z,7816
2018-03-27T08:24:14.819Z,7940
2018-03-27T08:25:14.735Z,7948
2018-03-27T08:26:14.719Z,7748
2018-03-27T08:27:14.963Z,8040
2018-03-27T08:28:14.952Z,8872
2018-03-27T08:29:14.729Z,10088
2018-03-27T08:30:14.398Z,10808
2018-03-27T08:31:14.384Z,10960
2018-03-27T08:32:14.630Z,11172
2018-03-27T08:33:14.874Z,11660
2018-03-27T08:34:14.084Z,11820
2018-03-27T08:35:14.335Z,11720
2018-03-27T08:36:14.378Z,11060
2018-03-27T08:37:14.559Z,10556
2018-03-27T08:38:14.812Z,10724
2018-03-27T08:39:14.790Z,10424
2018-03-27T08:40:14.257Z,10608
2018-03-27T08:41:14.505Z,10752
2018-03-27T08:42:14.230Z,10736
2018-03-27T08:43:14.477Z,10676
2018-03-27T08:44:14.204Z,10716
2018-03-27T08:45:14.450Z,10796
2018-03-27T08:46:14.434Z,10664
2018-03-27T08:47:14.162Z,10484
2018-03-27T08:48:13.890Z,10284
2018-03-27T08:49:14.654Z,10188
2018-03-27T08:50:14.383Z,10076
2018-03-27T08:51:14.629Z,10380
2018-03-27T08:52:14.095Z,10924
2018-03-27T08:53:14.601Z,11356
2018-03-27T08:54:14.405Z,11524
2018-03-27T08:55:14.574Z,11624
2018-03-27T08:56:14.773Z,11428
2018-03-27T08:57:14.294Z,10944
2018-03-27T08:58:14.023Z,11000
2018-03-27T08:59:14.532Z,11168
2018-03-27T09:00:14.259Z,11332
2018-03-27T09:01:14.240Z,11236
2018-03-27T09:02:14.231Z,11376
2018-03-27T09:03:14.227Z,11580
2018-03-27T09:04:14.207Z,11908
2018-03-27T09:05:14.196Z,12036
2018-03-27T09:06:14.444Z,12096
2018-03-27T09:07:13.911Z,12012
2018-03-27T09:08:13.898Z,11404
2018-03-27T09:09:14.408Z,10492
2018-03-27T09:10:14.132Z,10128
2018-03-27T09:11:13.861Z,10864
2018-03-27T09:12:14.365Z,11388
2018-03-27T09:13:14.140Z,11148
2018-03-27T09:14:14.342Z,10500
2018-03-27T09:15:13.560Z,9984
2018-03-27T09:16:14.321Z,9768
2018-03-27T09:17:14.051Z,9964
2018-03-27T09:18:14.034Z,10500
2018-03-27T09:19:14.283Z,11392
2018-03-27T09:20:14.011Z,11840
2018-03-27T09:21:14.259Z,11548
2018-03-27T09:22:14.237Z,10516
2018-03-27T09:23:13.971Z,9592
2018-03-27T09:24:14.224Z,8620
2018-03-27T09:25:14.212Z,8152
2018-03-27T09:26:13.952Z,8464
2018-03-27T09:27:13.931Z,9248
2018-03-27T09:28:14.171Z,9868
2018-03-27T09:29:14.165Z,10312
2018-03-27T09:30:13.889Z,10644
2018-03-27T09:31:14.011Z,11016
2018-03-27T09:32:13.863Z,11120
2018-03-27T09:33:13.591Z,11312
2018-03-27T09:34:13.851Z,11212
2018-03-27T09:35:13.823Z,10932
2018-03-27T09:36:13.552Z,10512
2018-03-27T09:37:13.799Z,9888
2018-03-27T09:38:13.796Z,9240
2018-03-27T09:39:13.773Z,8540
2018-03-27T09:40:14.046Z,8012
2018-03-27T09:41:13.495Z,7724
2018-03-27T09:42:13.596Z,7372
2018-03-27T09:43:13.988Z,7080
2018-03-27T09:44:13.985Z,6844
2018-03-27T09:45:13.710Z,6704
2018-03-27T09:46:13.959Z,6696
2018-03-27T09:47:13.416Z,6552
2018-03-27T09:48:13.151Z,6540
2018-03-27T09:49:13.398Z,6604
2018-03-27T09:50:13.640Z,6968
2018-03-27T09:51:13.376Z,7228
2018-03-27T09:52:13.611Z,7708
2018-03-27T09:53:13.599Z,8492
2018-03-27T09:54:13.591Z,9680
2018-03-27T09:55:13.578Z,10892
2018-03-27T09:56:13.562Z,11456
2018-03-27T09:57:13.557Z,11880
2018-03-27T09:58:13.544Z,12216
2018-03-27T09:59:13.009Z,12508
2018-03-27T10:00:13.509Z,12608
2018-03-27T10:01:13.501Z,12648
2018-03-27T10:02:13.760Z,12536
2018-03-27T10:03:13.471Z,12168
2018-03-27T10:04:13.468Z,11644
2018-03-27T10:05:13.452Z,10940
2018-03-27T10:06:13.444Z,10288
2018-03-27T10:07:13.171Z,9576
2018-03-27T10:08:13.156Z,9068
2018-03-27T10:09:13.409Z,8716
2018-03-27T10:10:13.134Z,8436
2018-03-27T10:11:13.123Z,8276
2018-03-27T10:12:13.415Z,8136
2018-03-27T10:13:13.100Z,7936
2018-03-27T10:14:13.087Z,7716
2018-03-27T10:15:12.813Z,7544
2018-03-27T10:16:13.068Z,7492
2018-03-27T10:17:13.312Z,7512
2018-03-27T10:18:12.783Z,7464
2018-03-27T10:19:13.294Z,7572
2018-03-27T10:20:13.013Z,7488
2018-03-27T10:21:13.259Z,7352
2018-03-27T10:22:12.784Z,7252
2018-03-27T10:23:13.245Z,7184
2018-03-27T10:24:13.227Z,7120
2018-03-27T10:25:13.470Z,6996
2018-03-27T10:26:12.945Z,6964
2018-03-27T10:27:13.187Z,7172
2018-03-27T10:28:13.433Z,7520
2018-03-27T10:29:13.169Z,7836
2018-03-27T10:30:13.412Z,8148
2018-03-27T10:31:12.887Z,8212
2018-03-27T10:32:13.401Z,7980
2018-03-27T10:33:12.857Z,8240
2018-03-27T10:34:12.847Z,8400
2018-03-27T10:35:13.125Z,9292
2018-03-27T10:36:12.826Z,9688
2018-03-27T10:37:13.071Z,9904
2018-03-27T10:38:12.798Z,10524
2018-03-27T10:39:13.053Z,11024
2018-03-27T10:40:13.038Z,11576
2018-03-27T10:41:13.030Z,11980
2018-03-27T10:42:13.010Z,11972
2018-03-27T10:43:12.740Z,11592
2018-03-27T10:44:12.746Z,11280
2018-03-27T10:45:12.976Z,10908
2018-03-27T10:46:12.445Z,10944
2018-03-27T10:47:12.692Z,11104
2018-03-27T10:48:13.200Z,11156
2018-03-27T10:49:13.186Z,11236
2018-03-27T10:50:12.660Z,11020
2018-03-27T10:51:12.645Z,10768
2018-03-27T10:52:12.894Z,10544
2018-03-27T10:53:12.927Z,10744
2018-03-27T10:54:12.610Z,10956
2018-03-27T10:55:13.167Z,11172
2018-03-27T10:56:12.853Z,10924
2018-03-27T10:57:12.838Z,10228
2018-03-27T10:58:13.086Z,9856
2018-03-27T10:59:12.556Z,9488
2018-03-27T11:00:12.546Z,9204
2018-03-27T11:01:13.046Z,8940
2018-03-27T11:02:12.520Z,8920
2018-03-27T11:03:12.764Z,9084
2018-03-27T11:04:13.014Z,9540
2018-03-27T11:05:12.750Z,9632
2018-03-27T11:06:12.729Z,9440
2018-03-27T11:07:12.203Z,9700
2018-03-27T11:08:12.974Z,9560
2018-03-27T11:09:12.958Z,9016
2018-03-27T11:10:12.693Z,8904
2018-03-27T11:11:12.674Z,8628
2018-03-27T11:12:12.925Z,8056
2018-03-27T11:13:12.650Z,8080
2018-03-27T11:14:12.912Z,8404
2018-03-27T11:15:12.630Z,8484
2018-03-27T11:16:12.879Z,8432
2018-03-27T11:17:12.914Z,8684
2018-03-27T11:18:12.597Z,9092
2018-03-27T11:19:12.590Z,9024
2018-03-27T11:20:12.584Z,8556
2018-03-27T11:21:12.566Z,8188
2018-03-27T11:22:12.553Z,7912
2018-03-27T11:23:12.802Z,7532
2018-03-27T11:24:12.274Z,7176
2018-03-27T11:25:12.260Z,6796
2018-03-27T11:26:12.759Z,6476
2018-03-27T11:27:12.492Z,6252
2018-03-27T11:28:12.480Z,6580
2018-03-27T11:29:12.844Z,6940
2018-03-27T11:30:12.723Z,7700
2018-03-27T11:31:12.448Z,8652
2018-03-27T11:32:12.692Z,9524
2018-03-27T11:33:12.681Z,10152
2018-03-27T11:34:12.166Z,10132
2018-03-27T11:35:12.398Z,10080
2018-03-27T11:36:12.390Z,10456
2018-03-27T11:37:12.688Z,11096
2018-03-27T11:38:12.696Z,11376
2018-03-27T11:39:12.352Z,11444
2018-03-27T11:40:12.339Z,11736
2018-03-27T11:41:12.336Z,12120
2018-03-27T11:42:12.579Z,12216
2018-03-27T11:43:12.562Z,12672
2018-03-27T11:44:12.299Z,13084
2018-03-27T11:45:12.572Z,12924
2018-03-27T11:46:12.014Z,12540
2018-03-27T11:47:12.005Z,12212
2018-03-27T11:48:12.246Z,11916
2018-03-27T11:49:12.246Z,11480
2018-03-27T11:50:12.519Z,10856
2018-03-27T11:51:12.224Z,10192
2018-03-27T11:52:11.950Z,9228
2018-03-27T11:53:11.938Z,8724
2018-03-27T11:54:12.465Z,8476
2018-03-27T11:55:12.432Z,7936
2018-03-27T11:56:12.166Z,7288
2018-03-27T11:57:11.899Z,6640
2018-03-27T11:58:12.399Z,6196
2018-03-27T11:59:12.137Z,6176
2018-03-27T12:00:12.120Z,6184
2018-03-27T12:01:12.106Z,6044
2018-03-27T12:02:12.357Z,5812
2018-03-27T12:03:12.346Z,5512
2018-03-27T12:04:12.334Z,5280
2018-03-27T12:05:12.063Z,5300
2018-03-27T12:06:11.792Z,5596
2018-03-27T12:07:12.046Z,6312
2018-03-27T12:08:12.305Z,7400
2018-03-27T12:09:12.279Z,8452
2018-03-27T12:10:12.016Z,8816
2018-03-27T12:11:11.997Z,8788
2018-03-27T12:12:11.987Z,8596
2018-03-27T12:13:12.230Z,8264
2018-03-27T12:14:12.224Z,7848
2018-03-27T12:15:11.983Z,7348
2018-03-27T12:16:12.198Z,7080
2018-03-27T12:17:11.925Z,7256
2018-03-27T12:18:11.919Z,6960
2018-03-27T12:19:11.644Z,6724
2018-03-27T12:20:11.892Z,6452
2018-03-27T12:21:12.137Z,6072
2018-03-27T12:22:11.877Z,5540
2018-03-27T12:23:11.597Z,4988
2018-03-27T12:24:11.845Z,4548
2018-03-27T12:25:11.830Z,4276
2018-03-27T12:26:11.562Z,4204
2018-03-27T12:27:11.805Z,4560
2018-03-27T12:28:11.544Z,5428
2018-03-27T12:29:11.791Z,6544
2018-03-27T12:30:11.778Z,7508
2018-03-27T12:31:11.240Z,8376
2018-03-27T12:32:12.016Z,9584
2018-03-27T12:33:11.479Z,10952
2018-03-27T12:34:11.785Z,12484
2018-03-27T12:35:11.714Z,13464
2018-03-27T12:36:11.701Z,13652
2018-03-27T12:37:11.682Z,13280
2018-03-27T12:38:11.411Z,12876
2018-03-27T12:39:11.413Z,12088
2018-03-27T12:40:11.651Z,10976
2018-03-27T12:41:11.635Z,9852
2018-03-27T12:42:11.730Z,8908
2018-03-27T12:43:11.610Z,8340
2018-03-27T12:44:11.344Z,7520
2018-03-27T12:45:11.843Z,6800
2018-03-27T12:46:11.318Z,6312
2018-03-27T12:47:11.838Z,5948
2018-03-27T12:48:11.553Z,5876
2018-03-27T12:49:11.540Z,5936
2018-03-27T12:50:11.277Z,5972
2018-03-27T12:51:11.522Z,5836
2018-03-27T12:52:11.764Z,5740
2018-03-27T12:53:11.504Z,5468
2018-03-27T12:54:10.971Z,5364
2018-03-27T12:55:11.467Z,5368
2018-03-27T12:56:11.456Z,5480
2018-03-27T12:57:11.439Z,5704
2018-03-27T12:58:11.177Z,6024
2018-03-27T12:59:11.438Z,6288
2018-03-27T13:00:11.423Z,6296
2018-03-27T13:01:11.132Z,6616
2018-03-27T13:02:11.655Z,7304
2018-03-27T13:03:11.636Z,8288
2018-03-27T13:04:11.626Z,8716
2018-03-27T13:05:11.358Z,8188
2018-03-27T13:06:11.599Z,8284
2018-03-27T13:07:11.588Z,9152
2018-03-27T13:08:11.309Z,9368
2018-03-27T13:09:11.296Z,9320
2018-03-27T13:10:10.768Z,9032
2018-03-27T13:11:11.537Z,9060
2018-03-27T13:12:11.522Z,9056
2018-03-27T13:13:11.508Z,9200
2018-03-27T13:14:11.244Z,9292
2018-03-27T13:15:11.230Z,9212
2018-03-27T13:16:11.473Z,9256
2018-03-27T13:17:11.473Z,9556
2018-03-27T13:18:10.678Z,10156
2018-03-27T13:19:11.189Z,10860
2018-03-27T13:20:11.426Z,11212
2018-03-27T13:21:11.152Z,10960
2018-03-27T13:22:11.148Z,10276
2018-03-27T13:23:11.408Z,9424
2018-03-27T13:24:11.140Z,8836
2018-03-27T13:25:11.368Z,8440
2018-03-27T13:26:11.351Z,8088
2018-03-27T13:27:11.087Z,7836
2018-03-27T13:28:11.076Z,7820
2018-03-27T13:29:11.371Z,8060
2018-03-27T13:30:11.052Z,8528
2018-03-27T13:31:11.034Z,8928
2018-03-27T13:32:11.103Z,9292
2018-03-27T13:33:10.752Z,9636
2018-03-27T13:34:11.003Z,10052
2018-03-27T13:35:10.728Z,10088
2018-03-27T13:36:10.725Z,9984
2018-03-27T13:37:10.980Z,9904
2018-03-27T13:38:11.210Z,9692
2018-03-27T13:39:11.009Z,9508
2018-03-27T13:40:10.933Z,9456
2018-03-27T13:41:10.655Z,9396
2018-03-27T13:42:11.167Z,9300
2018-03-27T13:43:11.156Z,9220
2018-03-27T13:44:10.619Z,9212
2018-03-27T13:45:11.127Z,9424